Flight Track Log - Related Links

Times and Time Zones

All times are in EDT time to prevent confusion due to time zone crossing. See the SKW6290 flight status page for this flight to view local times or setup timezone preferences in your user account.

Time Position Orientation Groundspeed Altitude Reporting Facility
EDT Latitude Longitude Course Direction KTS MPH feet Rate Location/Type
Fri 11:54:30 PM 33.9783 -116.5486 355° North 235 270 7,600  Level Los Angeles Center
Fri 11:55:00 PM 34.1092 -116.9073 342° North  Level Estimated
Fri 11:55:32 PM 34.0503 -116.5319 11° North 258 297 9,500  Level Los Angeles Center
Fri 11:56:00 PM 34.1788 -117.0079 270° West  Level Estimated
Fri 11:56:33 PM 34.1350 -116.5331 359° North 307 353 11,400  Level Los Angeles Center
Fri 11:57:00 PM 34.2484 -117.1086 281° West  Level Estimated
Fri 11:57:47 PM 34.2192 -116.5664 342° North 315 362 13,200  Level Los Angeles Center
Fri 11:58:49 PM 34.3517 -116.6175 342° North 351 404 15,000 1,463 Climbing Los Angeles Center
Fri 11:59:50 PM 34.4525 -116.6581 342° North 373 429 16,200 1,220 Climbing Los Angeles Center
Sat 12:00:52 AM 34.5053 -116.7581 303° West 376 433 17,500 1,268 Climbing Los Angeles Center
Sat 12:01:53 AM 34.5181 -116.8803 277° West 366 421 18,800 1,024 Climbing Los Angeles Center
Sat 12:02:55 AM 34.5317 -117.0058 278° West 372 428 19,600 585 Climbing Los Angeles Center
Sat 12:03:56 AM 34.5458 -117.1350 278° West 384 442 20,000 634 Climbing Los Angeles Center
Sat 12:04:58 AM 34.5594 -117.2678 277° West 393 452 20,900 1,015 Climbing Los Angeles Center
Sat 12:06:12 AM 34.5714 -117.3992 276° West 393 452 22,300 1,279 Climbing Los Angeles Center
Sat 12:07:14 AM 34.5842 -117.5519 276° West 385 443 23,800 1,268 Climbing Los Angeles Center
Sat 12:08:15 AM 34.5969 -117.6772 277° West 376 433 24,900 1,082 Climbing Los Angeles Center
Sat 12:09:16 AM 34.6106 -117.8297 276° West 378 435 26,000 537 Climbing Los Angeles Center
Sat 12:10:18 AM 34.6194 -117.9331 276° West 388 447 26,000  Level Los Angeles Center
Sat 12:11:19 AM 34.6517 -118.0944 284° West 431 496 26,000  Level Los Angeles Center
Sat 12:12:21 AM 34.7086 -118.2219 299° West 433 498 26,000  Level Los Angeles Center
Sat 12:13:22 AM 34.7650 -118.3489 298° West 429 494 26,000  Level Los Angeles Center
Sat 12:14:24 AM 34.8272 -118.4853 299° West 428 493 26,000  Level Los Angeles Center
Sat 12:15:25 AM 34.8839 -118.6047 300° West 415 478 26,000  Level Los Angeles Center
Sat 12:16:27 AM 34.9347 -118.7225 298° West 419 482 26,000  Level Los Angeles Center
Sat 12:17:28 AM 35.0017 -118.8719 299° West 421 484 26,000  Level Los Angeles Center
Sat 12:18:30 AM 35.0581 -118.9992 298° West 424 488 26,000  Level Los Angeles Center
Sat 12:19:31 AM 35.1150 -119.1247 299° West 425 489 26,000  Level Los Angeles Center
Sat 12:20:33 AM 35.1692 -119.2550 297° West 428 493 26,000  Level Los Angeles Center
Sat 12:21:34 AM 35.2258 -119.3831 298° West 428 493 26,000  Level Los Angeles Center
Sat 12:22:35 AM 35.2833 -119.5122 299° West 431 496 26,000  Level Los Angeles Center
Sat 12:23:37 AM 35.3403 -119.6436 298° West 435 501 26,000  Level Los Angeles Center
Sat 12:24:38 AM 35.3950 -119.7692 298° West 424 488 26,000  Level Los Angeles Center
Sat 12:25:40 AM 35.4600 -119.9194 298° West 419 482 26,000  Level Los Angeles Center
Sat 12:26:41 AM 35.5144 -120.0467 298° West 423 487 26,000  Level Los Angeles Center
Sat 12:27:43 AM 35.5686 -120.1725 298° West 423 487 26,000  Level Los Angeles Center
Sat 12:28:44 AM 35.6228 -120.3011 297° West 424 488 26,000  Level Los Angeles Center
Sat 12:29:45 AM 35.6764 -120.4264 298° West 427 491 26,000  Level Los Angeles Center
Sat 12:30:47 AM 35.7294 -120.5525 297° West 422 486 26,000  Level Los Angeles Center
Sat 12:31:48 AM 35.7939 -120.7053 298° West 422 486 26,000  Level Los Angeles Center
Sat 12:32:50 AM 35.8469 -120.8336 297° West 422 486 26,000  Level Los Angeles Center
Sat 12:33:51 AM 35.9003 -120.9611 297° West 420 483 26,000  Level Los Angeles Center
Sat 12:34:58 AM 35.9539 -121.0886 297° West 421 484 26,000  Level Oakland Center
Sat 12:35:59 AM 36.0178 -121.2425 297° West 420 483 26,000  Level Oakland Center
Sat 12:37:00 AM 36.0719 -121.3708 298° West 421 484 26,000  Level Oakland Center
Sat 12:38:02 AM 36.1681 -121.4619 323° Northwest 433 498 26,000  Level Oakland Center
Sat 12:39:03 AM 36.2689 -121.5472 326° Northwest 438 504 26,000 -787 Level Oakland Center
Sat 12:40:04 AM 36.3692 -121.6331 325° Northwest 437 503 24,400 -1,770 Descending Oakland Center
Sat 12:41:05 AM 36.4650 -121.7175 325° Northwest 424 488 22,400 -1,230 Descending Oakland Center
Sat 12:42:06 AM 36.5572 -121.7947 326° Northwest 405 466 21,900 -689 Descending Oakland Center
Sat 12:43:07 AM 36.6494 -121.8797 324° Northwest 395 455 21,000 -821 Descending Oakland Center
Sat 12:44:03 AM 36.7333 -121.9500 326° Northwest 376 433 20,300 -672 Descending Northern Cal TRACON
Sat 12:45:03 AM 36.8333 -121.9833 345° North 357 411 19,700 -650 Descending Northern Cal TRACON
Sat 12:46:03 AM 36.9167 -122.0167 342° North 329 379 19,000 -793 Descending Northern Cal TRACON
Sat 12:47:04 AM 36.9500 -122.1167 293° West 312 359 18,100 -1,512 Descending Northern Cal TRACON
Sat 12:48:10 AM 37.0000 -122.2167 302° West 313 360 15,800 -2,571 Descending Northern Cal TRACON
Sat 12:49:10 AM 37.0833 -122.2000 North 346 398 12,700 -2,855 Descending Northern Cal TRACON
Sat 12:50:14 AM 37.1825 -122.1603 18° North 325 374 9,900 -2,208 Descending Oakland Center
Sat 12:51:15 AM 37.2614 -122.1344 15° North 299 344 8,100 -1,475 Descending Oakland Center
Sat 12:52:16 AM 37.3297 -122.1094 16° North 261 300 6,900 -942 Descending Oakland Center
Sat 12:53:16 AM 37.4000 -122.0833 16° North 236 272 6,200 -550 Descending Northern Cal TRACON
Sat 12:54:16 AM 37.4500 -122.0833 360° North 203 234 5,800 -750 Descending Northern Cal TRACON
Sat 12:55:16 AM 37.5000 -122.1167 332° Northwest 197 227 4,700 -1,100 Descending Northern Cal TRACON
Sat 12:56:16 AM 37.5333 -122.1667 310° West 182 209 3,600 -1,200 Descending Northern Cal TRACON
Sat 12:57:16 AM 37.5500 -122.2333 288° West 188 216 2,300 -1,105 Descending Northern Cal TRACON
Sat 12:58:10 AM 37.5833 -122.2833 310° West 166 191 1,500 -842 Descending Northern Cal TRACON
Sat 12:59:10 AM 37.6000 -122.3167 302° West 138 159 700 -578 Descending Northern Cal TRACON
Sat 01:00:25 AM 37.6158 -122.3717 290° West 145 167 200 -400 Descending Oakland Center

Login

Don't have an account? Register now (free) for customized features, flight alerts, and more!